Historique des mesures à Cassis (13260), France
Quotidien Résumé Mai 27, 2018 Unités:  Métrique    US   Métrique/US
« Précédent (Jour)
Suivant (Jour) »
Quotidien Hebdomadaire Mensuel Annuel Période au choix
  Maximum: Minimum: Moyenne:
Température: TemperatureC °C 22.3 °C 24 °C
Point de rosée: DewpointC °C 11.1 °C 14.5 °C
Humidité: Humidity % 46 % 52 %
Vitesse du vent: 0 km/h 0 km/h 5.3 km/h
Rafales: 0 km/h - -
Vent:- - SSE
Pression: PressurehPa hPa 1009.7 hPa -
Précipitations: 0.0 mm    
Historical Graphs
 
 
Mesures pour : Mai 27, 2018
Heure Temperature Point de rosée Pression Vent Vitesse du vent Rafales Humidité Pluie (par heure) Conditions
TemperatureC °C DewpointC °C PressurehPa hPa Calm     Humidity % HourlyPrecipMM mm SoftwareType W/m2
00:10 22.3 °C 11.9 °C 1013.1 hPa Calm     52 % 0.0 mm open2300-1.11 W/m2
01:10 22.3 °C 11.1 °C 1012.8 hPa ESE 9.8 km/h 9.8 km/h 49 % 0.0 mm open2300-1.11 W/m2
02:10 23.4 °C 11.1 °C 1012.8 hPa ESE 5.6 km/h 6.4 km/h 46 % 0.0 mm open2300-1.11 W/m2
03:11 23.5 °C 12.2 °C 1012.4 hPa ESE 2.9 km/h 8.9 km/h 49 % 0.0 mm open2300-1.11 W/m2
04:10 22.4 °C 12.3 °C 1012.1 hPa Calm     53 % 0.0 mm open2300-1.11 W/m2
05:10 22.7 °C 13.4 °C 1011.4 hPa Calm     56 % 0.0 mm open2300-1.11 W/m2
06:10 23.1 °C 14.3 °C 1011.4 hPa SE 8 km/h 8 km/h 58 % 0.0 mm open2300-1.11 W/m2
07:10 23.0 °C 14.5 °C 1011.7 hPa Calm   7.6 km/h 59 % 0.0 mm open2300-1.11 W/m2
08:10 25.3 °C 15.8 °C 1011.7 hPa Calm   7.6 km/h 56 % 0.0 mm open2300-1.11 W/m2
09:11 25.6 °C 15.9 °C 1011.4 hPa SE 9.8 km/h 18.7 km/h 55 % 0.0 mm open2300-1.11 W/m2
10:11 27.5 °C 16.4 °C 1010.4 hPa SE 22.5 km/h 22.5 km/h 51 % 0.0 mm open2300-1.11 W/m2
11:12 29.8 °C 17.9 °C 1010.4 hPa SE 4.2 km/h 27.2 km/h 49 % 0.0 mm open2300-1.11 W/m2
12:11 29.2 °C 16.7 °C 1011.4 hPa ESE 12.7 km/h 23 km/h 47 % 0.0 mm open2300-1.11 W/m2
13:11 27.3 °C 16.3 °C 1012.8 hPa East 6.4 km/h 10.3 km/h 51 % 0.0 mm open2300-1.11 W/m2
14:11 27.9 °C 15.8 °C 1010.4 hPa East 5.6 km/h 8 km/h 48 % 0.0 mm open2300-1.11 W/m2
15:11 27.5 °C 16.7 °C 1010.4 hPa West 8.9 km/h 9.8 km/h 52 % 0.0 mm open2300-1.11 W/m2
16:12 27.8 °C 17.6 °C 1010.4 hPa Calm   7.6 km/h 54 % 0.0 mm open2300-1.11 W/m2
17:11 27.3 °C 16.0 °C 1010.4 hPa South 5.6 km/h 5.6 km/h 50 % 0.0 mm open2300-1.11 W/m2
18:11 24.9 °C 16.1 °C 1009.7 hPa Calm   3.4 km/h 58 % 0.0 mm open2300-1.11 W/m2
19:11 24.0 °C 16.5 °C 1010.4 hPa West 9.3 km/h 9.3 km/h 63 % 0.0 mm open2300-1.11 W/m2
20:11 23.3 °C 16.3 °C 1010.7 hPa WNW 9.3 km/h 19.6 km/h 65 % 0.0 mm open2300-1.11 W/m2
21:12 22.9 °C 16.4 °C 1010.7 hPa NE 4.2 km/h 4.2 km/h 67 % 0.0 mm open2300-1.11 W/m2
22:11 23.5 °C 16.3 °C 1009.7 hPa ESE 6.4 km/h 18.7 km/h 64 % 0.0 mm open2300-1.11 W/m2
23:11 24.2 °C 15.4 °C 1010.4 hPa Calm   6.4 km/h 58 % 0.0 mm open2300-1.11 W/m2
Observations météo à CASSIS
WU-History script by Weather Underground - 1 mb